Flight Track Log - Related Links

Times and Time Zones

All times are in EST time to prevent confusion due to time zone crossing. See the EJA941 flight status page for this flight to view local times or setup timezone preferences in your user account.

Time Position Orientation Groundspeed Altitude Reporting Facility
EST Latitude Longitude Course Direction KTS MPH feet Rate Location/Type
Sun 08:30:59 AM 39.1167 -94.6000 218° Southwest 159 183 1,400  Level Kansas City TRACON
Sun 08:31:23 AM 39.1000 -94.6167 218° Southwest 165 190 3,300 3,843 Climbing Kansas City TRACON
Sun 08:32:28 AM 39.0572 -94.6667 222° Southwest 222 255 7,100 3,744 Climbing Kansas City Center
Sun 08:33:28 AM 39.0153 -94.5931 126° Southeast 311 358 11,100 3,098 Climbing Kansas City Center
Sun 08:34:30 AM 39.0814 -94.5094 44° Northeast 377 434 13,400 2,250 Climbing Kansas City Center
Sun 08:35:28 AM 39.1969 -94.4528 21° North 403 464 15,600 2,067 Climbing Kansas City Center
Sun 08:36:29 AM 39.2969 -94.3983 23° Northeast 407 468 17,500 1,983 Climbing Kansas City Center
Sun 08:37:29 AM 39.3986 -94.3439 22° Northeast 413 475 19,600 2,182 Climbing Kansas City Center
Sun 08:38:30 AM 39.5131 -94.2561 31° Northeast 437 503 21,900 1,887 Climbing Kansas City Center
Sun 08:39:33 AM 39.5875 -94.1319 52° Northeast 458 527 23,500 1,587 Climbing Kansas City Center
Sun 08:40:31 AM 39.6356 -93.9772 68° East 479 551 25,100 1,686 Climbing Kansas City Center
Sun 08:41:34 AM 39.6878 -93.7869 70° East 500 575 26,900 1,645 Climbing Kansas City Center
Sun 08:42:35 AM 39.7361 -93.6114 70° East 513 590 28,500 1,587 Climbing Kansas City Center
Sun 08:43:35 AM 39.7850 -93.4367 70° East 516 594 30,100 1,574 Climbing Kansas City Center
Sun 08:44:37 AM 39.8350 -93.2550 70° East 532 612 31,700 1,574 Climbing Kansas City Center
Sun 08:45:37 AM 39.8856 -93.0683 71° East 541 623 33,300 1,537 Climbing Kansas City Center
Sun 08:46:38 AM 39.9347 -92.8872 70° East 545 627 34,800 1,525 Climbing Kansas City Center
Sun 08:47:39 AM 39.9844 -92.7025 71° East 547 629 36,400 1,537 Climbing Kansas City Center
Sun 08:48:39 AM 40.0356 -92.5169 70° East 553 636 37,900 1,700 Climbing Kansas City Center
Sun 08:49:39 AM 40.0928 -92.2989 71° East 541 623 39,800 1,537 Climbing Kansas City Center
Sun 08:50:40 AM 40.1422 -92.1192 70° East 535 616 41,000 585 Climbing Kansas City Center
Sun 08:51:42 AM 40.1914 -91.9319 71° East 543 625 41,000  Level Kansas City Center
Sun 08:52:43 AM 40.2419 -91.7386 71° East 554 638 41,000  Level Kansas City Center
Sun 08:53:42 AM 40.2917 -91.5439 71° East 569 655 41,000  Level Kansas City Center
Sun 08:54:44 AM 40.3431 -91.3456 71° East 580 667 41,000  Level Kansas City Center
Sun 08:55:44 AM 40.3961 -91.1403 71° East 580 667 41,000  Level Kansas City Center
Sun 08:56:42 AM 40.4489 -90.9433 71° East 582 670 41,000  Level Chicago Center
Sun 08:57:43 AM 40.4986 -90.7411 72° East 583 671 41,000  Level Chicago Center
Sun 08:58:44 AM 40.5481 -90.5397 72° East 578 665 41,000  Level Chicago Center
Sun 08:59:45 AM 40.5983 -90.3369 72° East 582 670 41,000  Level Chicago Center
Sun 09:00:46 AM 40.6544 -90.1100 72° East 580 667 41,000  Level Chicago Center
Sun 09:01:47 AM 40.7036 -89.9089 72° East 580 667 41,000  Level Chicago Center
Sun 09:02:48 AM 40.7481 -89.7072 74° East 578 665 41,000  Level Chicago Center
Sun 09:03:49 AM 40.7978 -89.5103 71° East 579 666 41,000  Level Chicago Center
Sun 09:04:50 AM 40.8478 -89.3044 72° East 584 672 41,000  Level Chicago Center
Sun 09:05:51 AM 40.8956 -89.1014 73° East 581 669 41,000  Level Chicago Center
Sun 09:06:52 AM 40.9425 -88.8992 73° East 579 666 41,000  Level Chicago Center
Sun 09:07:53 AM 40.9853 -88.7033 74° East 563 648 41,000  Level Chicago Center
Sun 09:08:54 AM 41.0397 -88.4636 73° East 569 655 41,000  Level Chicago Center
Sun 09:09:56 AM 41.0853 -88.2678 73° East 564 649 41,000  Level Chicago Center
Sun 09:10:57 AM 41.1292 -88.0706 73° East 567 652 41,000  Level Chicago Center
Sun 09:11:58 AM 41.1722 -87.8750 74° East 564 649 41,000  Level Chicago Center
Sun 09:12:59 AM 41.2164 -87.6761 73° East 570 656 41,000  Level Chicago Center
Sun 09:14:00 AM 41.2608 -87.4767 73° East 569 655 41,000  Level Chicago Center
Sun 09:15:01 AM 41.3119 -87.2397 74° East 563 648 41,000  Level Chicago Center
Sun 09:16:03 AM 41.3539 -87.0397 74° East 564 649 41,000  Level Chicago Center
Sun 09:17:04 AM 41.3958 -86.8419 74° East 560 644 41,000  Level Chicago Center
Sun 09:18:05 AM 41.4344 -86.6528 75° East 556 640 41,000  Level Chicago Center
Sun 09:19:06 AM 41.4717 -86.4550 76° East 554 638 41,000  Level Chicago Center
Sun 09:20:08 AM 41.4775 -86.2486 88° East 562 647 41,000  Level Chicago Center
Sun 09:21:09 AM 41.4761 -86.0414 90° East 563 648 41,000  Level Chicago Center
Sun 09:22:10 AM 41.4747 -85.7908 90° East 569 655 41,000  Level Chicago Center
Sun 09:23:11 AM 41.4719 -85.5828 91° East 572 658 41,000  Level Chicago Center
Sun 09:24:12 AM 41.4692 -85.3783 91° East 568 654 41,000  Level Chicago Center
Sun 09:25:14 AM 41.4672 -85.1722 91° East 573 659 41,000  Level Chicago Center
Sun 09:26:15 AM 41.4639 -84.9636 91° East 571 657 41,000  Level Chicago Center
Sun 09:27:16 AM 41.4600 -84.7556 91° East 568 654 41,000  Level Chicago Center
Sun 09:28:17 AM 41.4558 -84.5450 91° East 571 657 41,000  Level Chicago Center
Sun 09:29:19 AM 41.4511 -84.2939 91° East 566 651 41,000  Level Chicago Center
Sun 09:30:20 AM 41.4325 -84.0853 97° East 569 655 41,000  Level Chicago Center
Sun 09:31:21 AM 41.3911 -83.8778 105° East 577 664 41,000  Level Chicago Center
Sun 09:32:22 AM 41.3525 -83.6722 104° East 575 662 41,000  Level Chicago Center
Sun 09:33:49 AM 41.2950 -83.3706 104° East 572 658 41,000  Level Cleveland Center
Sun 09:34:50 AM 41.2528 -83.1522 104° East 573 659 41,000  Level Cleveland Center
Sun 09:35:51 AM 41.2119 -82.9447 105° East 577 664 41,000  Level Cleveland Center
Sun 09:36:52 AM 41.1717 -82.7389 105° East 575 662 41,000  Level Cleveland Center
Sun 09:37:54 AM 41.1300 -82.5308 105° East 579 666 41,000  Level Cleveland Center
Sun 09:38:55 AM 41.0872 -82.3253 105° East 576 663 41,000  Level Cleveland Center
Sun 09:39:56 AM 41.0464 -82.1233 105° East 569 655 41,000  Level Cleveland Center
Sun 09:40:57 AM 41.0050 -81.9228 105° East 567 652 41,000  Level Cleveland Center
Sun 09:41:58 AM 40.9642 -81.7231 105° East 565 650 41,000  Level Cleveland Center
Sun 09:42:59 AM 40.9222 -81.5233 105° East 566 651 41,000  Level Cleveland Center
Sun 09:44:00 AM 40.8789 -81.3239 106° East 565 650 41,000  Level Cleveland Center
Sun 09:45:01 AM 40.8356 -81.1206 106° East 573 659 41,000  Level Cleveland Center
Sun 09:46:02 AM 40.7842 -80.8911 106° East 579 666 41,000  Level Cleveland Center
Sun 09:47:04 AM 40.7375 -80.6753 106° East 583 671 41,000  Level Cleveland Center
Sun 09:48:05 AM 40.6917 -80.4658 106° East 589 678 41,000  Level Cleveland Center
Sun 09:49:06 AM 40.6464 -80.2625 106° East 588 677 41,000  Level Cleveland Center
Sun 09:50:07 AM 40.6006 -80.0564 106° East 590 679 41,000  Level Cleveland Center
Sun 09:51:08 AM 40.5511 -79.8472 107° East 593 682 41,000  Level Cleveland Center
Sun 09:52:09 AM 40.5083 -79.6347 105° East 597 687 41,000  Level Cleveland Center
Sun 09:53:10 AM 40.4900 -79.4181 96° East 598 688 41,000  Level Cleveland Center
Sun 09:54:11 AM 40.4758 -79.2142 95° East 594 684 41,000 -1,268 Level Cleveland Center
Sun 09:55:13 AM 40.4578 -78.9583 95° East 593 682 38,400 -2,683 Descending Cleveland Center
Sun 09:56:14 AM 40.4428 -78.7592 96° East 572 658 35,500 -2,852 Descending Cleveland Center
Sun 09:57:15 AM 40.4275 -78.5603 96° East 557 641 32,600 -2,902 Descending Cleveland Center
Sun 09:58:16 AM 40.4114 -78.3583 96° East 560 644 29,600 -2,951 Descending Cleveland Center
Sun 09:59:17 AM 40.3953 -78.1542 96° East 566 651 26,600 -2,872 Descending Cleveland Center
Sun 09:59:50 AM 40.3844 -78.0278 96° East 565 650 25,100 -1,097 Descending New York Center
Sun 10:00:50 AM 40.3692 -77.8328 96° East 551 634 24,900 -650 Descending New York Center
Sun 10:01:50 AM 40.3514 -77.6400 97° East 540 621 23,800 -1,100 Descending New York Center
Sun 10:02:50 AM 40.3364 -77.4669 96° East 534 615 22,700 -1,150 Descending New York Center
Sun 10:03:50 AM 40.3164 -77.2636 97° East 523 602 21,500 -1,150 Descending New York Center
Sun 10:04:50 AM 40.2992 -77.0822 97° East 518 596 20,400 -1,450 Descending New York Center
Sun 10:05:50 AM 40.2711 -76.9028 102° East 507 583 18,600 -1,850 Descending New York Center
Sun 10:06:50 AM 40.2475 -76.7511 101° East 482 555 16,700 -1,550 Descending New York Center
Sun 10:07:50 AM 40.2222 -76.5886 101° East 469 540 15,500 -1,450 Descending New York Center
Sun 10:08:50 AM 40.1911 -76.4119 103° East 457 526 13,800 -1,550 Descending New York Center
Sun 10:09:50 AM 40.1672 -76.2581 101° East 446 513 12,400 -1,450 Descending New York Center
Sun 10:10:50 AM 40.1428 -76.1067 102° East 432 497 10,900 -1,400 Descending New York Center
Sun 10:11:50 AM 40.1253 -75.9911 101° East 386 444 9,600 -1,400 Descending New York Center
Sun 10:12:50 AM 40.1014 -75.8700 104° East 327 376 8,100 -1,200 Descending New York Center
Sun 10:13:50 AM 40.0831 -75.7628 103° East 309 356 7,200 -550 Descending New York Center
Sun 10:14:50 AM 40.0850 -75.6625 89° East 302 348 7,000 -150 Descending New York Center
Sun 10:15:50 AM 40.0958 -75.5494 83° East 290 334 6,900 -500 Descending New York Center
Sun 10:16:50 AM 40.0997 -75.4547 87° East 285 328 6,000 -1,000 Descending New York Center
Sun 10:17:50 AM 40.1083 -75.3439 84° East 285 328 4,900 -1,020 Descending New York Center
Sun 10:18:30 AM 40.1167 -75.2667 82° East 286 329 4,300 -540 Descending Philadelphia TRACON
Sun 10:19:30 AM 40.1167 -75.1667 90° East 279 321 4,000 -522 Descending Philadelphia TRACON
Sun 10:20:48 AM 40.1333 -75.0333 81° East 273 314 3,100 -429 Descending Philadelphia TRACON
Sun 10:21:50 AM 40.1328 -74.9681 91° East 243 280 3,000 -98 Descending New York Center
Sun 10:22:50 AM 40.1406 -74.8656 84° East 238 274 2,900 -50 Descending New York Center
Sun 10:23:50 AM 40.1475 -74.7789 84° East 257 296 2,900  Level New York Center
Sun 10:24:50 AM 40.1528 -74.6869 86° East 257 296 2,900  Level New York Center
Sun 10:26:00 AM 40.1559 -74.4763 72° East  Level FlightAware Approximate
Sun 10:33:00 AM 40.1833 -74.1167 78° East  Level FlightAware Approximate
Sun 10:34:00 AM 40.1867 -74.1246 78° East  Level Estimated
Sun 10:35:00 AM 40.1833 -74.1167 78° East  Level FlightAware Approximate
Sun 10:36:00 AM 40.1867 -74.1246 78° East  Level Estimated

Login

Don't have an account? Register now (free) for customized features, flight alerts, and more!